Houn Maru — JG5489 — position and weather

sailwx.info

Track history (hours):
 
Tides and Currents Weather Stations Pressure Air Temp Water Temp Dewpoint Dewpoint Depression Visibility Wind Speed Wind Dir Waves Ship Positions

Houn Maru

Last reported at 2017-Jan-20 05:34 UTC. Time now 2017-Jan-20 07:55 UTC.
Position N 34°38' E 134°59'.

Length 91 m; draft 4.5 m.

Type: Tanker. MMSI: 431101172.

Date/timePositionNaut miles runAvg speedWind from/ knotsBaromVisibWave heightAir tempDewpointWater temp
2017-Jan-20 05:34N 34°38' E 134°59'1312.4
2017-Jan-20 04:30N 34°28' E 135°10'5 1.1
2017-Jan-20 00:07N 34°25' E 135°14'3 4.7
2017-Jan-19 23:33N 34°23' E 135°12'2 0.4
2017-Jan-19 19:14N 34°23' E 135°10'0 0.0
2017-Jan-19 18:08N 34°23' E 135°10'0 0.1
2017-Jan-19 17:32N 34°23' E 135°10'0 0.0
2017-Jan-19 15:26N 34°23' E 135°10'0 0.0
2017-Jan-19 14:32N 34°23' E 135°10'0 0.0
2017-Jan-19 13:26N 34°23' E 135°10'0 0.0
2017-Jan-19 12:32N 34°22' E 135°10'0 0.0
2017-Jan-19 11:32N 34°22' E 135°10'0 0.0
2017-Jan-19 07:32N 34°22' E 135°10'10 9.9
2017-Jan-19 06:33N 34°30' E 135°17'7 1.0
2017-Jan-18 23:33N 34°33' E 135°25'5 2.2
2017-Jan-18 21:06N 34°33' E 135°19'0 0.0
2017-Jan-18 20:30N 34°33' E 135°19'0 0.0
2017-Jan-18 19:30N 34°33' E 135°19'0 0.0
2017-Jan-18 18:30N 34°33' E 135°19'0 0.0
2017-Jan-18 17:24N 34°33' E 135°19'0 0.0
2017-Jan-18 16:24N 34°33' E 135°19'0 0.0
2017-Jan-18 15:24N 34°33' E 135°19'0 0.1
2017-Jan-18 14:30N 34°33' E 135°19'0 0.1
2017-Jan-18 13:24N 34°33' E 135°19'0 0.0
2017-Jan-18 12:30N 34°33' E 135°19'0 0.0
2017-Jan-18 11:24N 34°33' E 135°19'0 0.0
2017-Jan-18 10:30N 34°33' E 135°19'0 0.0
2017-Jan-18 09:30N 34°33' E 135°19'0 0.0
2017-Jan-18 08:24N 34°33' E 135°19'0 0.0
2017-Jan-18 07:30N 34°33' E 135°19'0 0.0
2017-Jan-18 06:30N 34°33' E 135°19'0 0.0
2017-Jan-18 05:30N 34°33' E 135°19'9 9.8
2017-Jan-18 04:33N 34°26' E 135°11'3 0.6
2017-Jan-18 00:08N 34°25' E 135°14'2 3.7
2017-Jan-17 23:31N 34°23' E 135°13'0 0.0
2017-Jan-17 22:32N 34°23' E 135°13'0 0.0
2017-Jan-17 21:26N 34°23' E 135°13'0 0.0
2017-Jan-17 20:29N 34°23' E 135°13'0 0.0
2017-Jan-17 19:32N 34°23' E 135°13'2 2.0
2017-Jan-17 18:33N 34°25' E 135°11'1211.9
2017-Jan-17 17:34N 34°35' E 135°03'7 0.2
2017-Jan-16 06:14N 34°36' E 134°55'710.0
2017-Jan-16 05:33N 34°36' E 135°03'1111.2
2017-Jan-16 04:33N 34°27' E 135°10'4 1.2
2017-Jan-16 01:06N 34°25' E 135°14'0 0.0
2017-Jan-16 00:30N 34°25' E 135°14'0 0.5
2017-Jan-15 23:30N 34°25' E 135°15'0 0.0
2017-Jan-15 17:30N 34°25' E 135°15'0 0.0
2017-Jan-15 16:18N 34°25' E 135°15'0 0.0
2017-Jan-15 15:30N 34°25' E 135°15'0 0.0
2017-Jan-15 14:30N 34°25' E 135°15'0 0.0
2017-Jan-15 13:24N 34°25' E 135°15'0 0.0
2017-Jan-15 11:24N 34°25' E 135°15'0 0.0
2017-Jan-15 05:24N 34°25' E 135°15'0 0.0
2017-Jan-15 04:12N 34°25' E 135°15'0 0.1
2017-Jan-15 03:24N 34°25' E 135°15'0 0.0
2017-Jan-15 02:30N 34°25' E 135°15'0 0.0
2017-Jan-14 21:06N 34°25' E 135°15'0 0.0
2017-Jan-14 15:30N 34°25' E 135°15'0 0.1
2017-Jan-14 14:24N 34°25' E 135°15'0 0.0
2017-Jan-14 13:30N 34°25' E 135°15'0 0.0
2017-Jan-14 12:06N 34°25' E 135°15'0 0.0
2017-Jan-14 10:12N 34°25' E 135°15'0 0.0
2017-Jan-14 09:30N 34°25' E 135°15'0 0.0
2017-Jan-14 08:30N 34°25' E 135°15'0 0.0
2017-Jan-14 07:30N 34°25' E 135°15'0 0.0
2017-Jan-14 06:27N 34°25' E 135°15'0 0.0
2017-Jan-14 05:33N 34°25' E 135°15'0 0.0
2017-Jan-14 03:27N 34°25' E 135°15'2 0.6
2017-Jan-13 23:31N 34°23' E 135°13'0 0.0
2017-Jan-13 22:31N 34°23' E 135°13'0 0.2
2017-Jan-13 20:33N 34°24' E 135°12'1211.9
2017-Jan-13 19:33N 34°33' E 135°04'9 0.3
2017-Jan-12 08:04N 34°35' E 134°54'610.5
2017-Jan-12 07:28N 34°37' E 135°01'9 9.5
2017-Jan-12 06:33N 34°31' E 135°08'8 1.6
2017-Jan-12 01:32N 34°25' E 135°14'2 2.1
2017-Jan-12 00:32N 34°23' E 135°13'0 0.0
2017-Jan-11 21:14N 34°23' E 135°13'0 0.0
2017-Jan-11 20:08N 34°23' E 135°13'0 0.0
2017-Jan-11 17:32N 34°23' E 135°13'0 0.0
2017-Jan-11 15:26N 34°23' E 135°13'0 0.0
2017-Jan-11 14:26N 34°23' E 135°13'0 0.0
2017-Jan-11 13:20N 34°23' E 135°13'0 0.0
2017-Jan-11 12:32N 34°23' E 135°13'4 4.3
2017-Jan-11 11:33N 34°26' E 135°09'1111.2
2017-Jan-11 10:33N 34°36' E 135°02'7 0.3
2017-Jan-10 08:31N 34°36' E 134°54'1010.4
2017-Jan-10 07:33N 34°34' E 135°06'1111.4
2017-Jan-10 06:33N 34°24' E 135°13'  
Track history (hours):
 
Tides and Currents Weather Stations Pressure Air Temp Water Temp Dewpoint Dewpoint Depression Visibility Wind Speed Wind Dir Waves Ship Positions

Houn Maru

Last reported at 2017-Jan-20 05:34 UTC. Time now 2017-Jan-20 07:55 UTC.
Position N 34°38' E 134°59'.

Length 91 m; draft 4.5 m.

Type: Tanker. MMSI: 431101172.

Date/timePositionNaut miles runAvg speedWind from/ knotsBaromVisibWave heightAir tempDewpointWater temp
2017-Jan-20 05:34N 34°38' E 134°59'1312.4
2017-Jan-20 04:30N 34°28' E 135°10'5 1.1
2017-Jan-20 00:07N 34°25' E 135°14'3 4.7
2017-Jan-19 23:33N 34°23' E 135°12'2 0.4
2017-Jan-19 19:14N 34°23' E 135°10'0 0.0
2017-Jan-19 18:08N 34°23' E 135°10'0 0.1
2017-Jan-19 17:32N 34°23' E 135°10'0 0.0
2017-Jan-19 15:26N 34°23' E 135°10'0 0.0
2017-Jan-19 14:32N 34°23' E 135°10'0 0.0
2017-Jan-19 13:26N 34°23' E 135°10'0 0.0
2017-Jan-19 12:32N 34°22' E 135°10'0 0.0
2017-Jan-19 11:32N 34°22' E 135°10'0 0.0
2017-Jan-19 07:32N 34°22' E 135°10'10 9.9
2017-Jan-19 06:33N 34°30' E 135°17'7 1.0
2017-Jan-18 23:33N 34°33' E 135°25'5 2.2
2017-Jan-18 21:06N 34°33' E 135°19'0 0.0
2017-Jan-18 20:30N 34°33' E 135°19'0 0.0
2017-Jan-18 19:30N 34°33' E 135°19'0 0.0
2017-Jan-18 18:30N 34°33' E 135°19'0 0.0
2017-Jan-18 17:24N 34°33' E 135°19'0 0.0
2017-Jan-18 16:24N 34°33' E 135°19'0 0.0
2017-Jan-18 15:24N 34°33' E 135°19'0 0.1
2017-Jan-18 14:30N 34°33' E 135°19'0 0.1
2017-Jan-18 13:24N 34°33' E 135°19'0 0.0
2017-Jan-18 12:30N 34°33' E 135°19'0 0.0
2017-Jan-18 11:24N 34°33' E 135°19'0 0.0
2017-Jan-18 10:30N 34°33' E 135°19'0 0.0
2017-Jan-18 09:30N 34°33' E 135°19'0 0.0
2017-Jan-18 08:24N 34°33' E 135°19'0 0.0
2017-Jan-18 07:30N 34°33' E 135°19'0 0.0
2017-Jan-18 06:30N 34°33' E 135°19'0 0.0
2017-Jan-18 05:30N 34°33' E 135°19'9 9.8
2017-Jan-18 04:33N 34°26' E 135°11'3 0.6
2017-Jan-18 00:08N 34°25' E 135°14'2 3.7
2017-Jan-17 23:31N 34°23' E 135°13'0 0.0
2017-Jan-17 22:32N 34°23' E 135°13'0 0.0
2017-Jan-17 21:26N 34°23' E 135°13'0 0.0
2017-Jan-17 20:29N 34°23' E 135°13'0 0.0
2017-Jan-17 19:32N 34°23' E 135°13'2 2.0
2017-Jan-17 18:33N 34°25' E 135°11'1211.9
2017-Jan-17 17:34N 34°35' E 135°03'7 0.2
2017-Jan-16 06:14N 34°36' E 134°55'710.0
2017-Jan-16 05:33N 34°36' E 135°03'1111.2
2017-Jan-16 04:33N 34°27' E 135°10'4 1.2
2017-Jan-16 01:06N 34°25' E 135°14'0 0.0
2017-Jan-16 00:30N 34°25' E 135°14'0 0.5
2017-Jan-15 23:30N 34°25' E 135°15'0 0.0
2017-Jan-15 17:30N 34°25' E 135°15'0 0.0
2017-Jan-15 16:18N 34°25' E 135°15'0 0.0
2017-Jan-15 15:30N 34°25' E 135°15'0 0.0
2017-Jan-15 14:30N 34°25' E 135°15'0 0.0
2017-Jan-15 13:24N 34°25' E 135°15'0 0.0
2017-Jan-15 11:24N 34°25' E 135°15'0 0.0
2017-Jan-15 05:24N 34°25' E 135°15'0 0.0
2017-Jan-15 04:12N 34°25' E 135°15'0 0.1
2017-Jan-15 03:24N 34°25' E 135°15'0 0.0
2017-Jan-15 02:30N 34°25' E 135°15'0 0.0
2017-Jan-14 21:06N 34°25' E 135°15'0 0.0
2017-Jan-14 15:30N 34°25' E 135°15'0 0.1
2017-Jan-14 14:24N 34°25' E 135°15'0 0.0
2017-Jan-14 13:30N 34°25' E 135°15'0 0.0
2017-Jan-14 12:06N 34°25' E 135°15'0 0.0
2017-Jan-14 10:12N 34°25' E 135°15'0 0.0
2017-Jan-14 09:30N 34°25' E 135°15'0 0.0
2017-Jan-14 08:30N 34°25' E 135°15'0 0.0
2017-Jan-14 07:30N 34°25' E 135°15'0 0.0
2017-Jan-14 06:27N 34°25' E 135°15'0 0.0
2017-Jan-14 05:33N 34°25' E 135°15'0 0.0
2017-Jan-14 03:27N 34°25' E 135°15'2 0.6
2017-Jan-13 23:31N 34°23' E 135°13'0 0.0
2017-Jan-13 22:31N 34°23' E 135°13'0 0.2
2017-Jan-13 20:33N 34°24' E 135°12'1211.9
2017-Jan-13 19:33N 34°33' E 135°04'9 0.3
2017-Jan-12 08:04N 34°35' E 134°54'610.5
2017-Jan-12 07:28N 34°37' E 135°01'9 9.5
2017-Jan-12 06:33N 34°31' E 135°08'8 1.6
2017-Jan-12 01:32N 34°25' E 135°14'2 2.1
2017-Jan-12 00:32N 34°23' E 135°13'0 0.0
2017-Jan-11 21:14N 34°23' E 135°13'0 0.0
2017-Jan-11 20:08N 34°23' E 135°13'0 0.0
2017-Jan-11 17:32N 34°23' E 135°13'0 0.0
2017-Jan-11 15:26N 34°23' E 135°13'0 0.0
2017-Jan-11 14:26N 34°23' E 135°13'0 0.0
2017-Jan-11 13:20N 34°23' E 135°13'0 0.0
2017-Jan-11 12:32N 34°23' E 135°13'4 4.3
2017-Jan-11 11:33N 34°26' E 135°09'1111.2
2017-Jan-11 10:33N 34°36' E 135°02'7 0.3
2017-Jan-10 08:31N 34°36' E 134°54'1010.4
2017-Jan-10 07:33N 34°34' E 135°06'1111.4
2017-Jan-10 06:33N 34°24' E 135°13'  

Dump ship's entire track history